EZY2066 LGKO-EGCC
Flight info
| Callsign | EZY2066 |
|---|---|
| Flight time | N/A |
| Altitude | 36000 |
| Route | LARKI3A LARKI UL609 MES DCT KOROS DCT DISOR DCT LONTA UL608 DOLEV DCT YUYUH DCT GENLU DCT PODOB DCT BOSNA DCT MARIL DCT KUSIB DCT GORPA DCT MODSA DCT BABEG/N0447F380 DCT LIRSU DCT DENUT L610 LAM UN57 WELIN T420 ELVOS ELVOS1M |
| Aircraft | A319/M-SDE3FGHIRWY/LB1 |
Departure
| Time | 2026-05-06 12:11 |
|---|---|
| Airport | Kos International Airport "Ippokratis" (LGKO) |
Arrival
| Time | N/A |
|---|---|
| Airport | Manchester Airport (EGCC) |
| Time | Latitude | Longitude | Altitude | Speed | Heading |
|---|---|---|---|---|---|
| 2026-05-06 11:51 | 36.80114 | 27.08959 | 419 ft | 0 kts | 58° |
| 2026-05-06 12:03 | 36.80102 | 27.08934 | 408 ft | 4 kts | 58° |
| 2026-05-06 12:03 | 36.80090 | 27.08911 | 409 ft | 4 kts | 63° |
| 2026-05-06 12:03 | 36.80083 | 27.08881 | 408 ft | 4 kts | 102° |
| 2026-05-06 12:04 | 36.80095 | 27.08857 | 412 ft | 3 kts | 148° |
| 2026-05-06 12:04 | 36.80108 | 27.08847 | 408 ft | 0 kts | 148° |
| 2026-05-06 12:06 | 36.80089 | 27.08863 | 410 ft | 9 kts | 146° |
| 2026-05-06 12:06 | 36.80029 | 27.08912 | 419 ft | 11 kts | 147° |
| 2026-05-06 12:07 | 36.79967 | 27.08960 | 415 ft | 10 kts | 147° |
| 2026-05-06 12:07 | 36.79893 | 27.08982 | 416 ft | 14 kts | 180° |
| 2026-05-06 12:07 | 36.79767 | 27.08985 | 409 ft | 22 kts | 180° |
| 2026-05-06 12:07 | 36.79600 | 27.09006 | 418 ft | 24 kts | 156° |
| 2026-05-06 12:08 | 36.79451 | 27.09118 | 412 ft | 26 kts | 148° |
| 2026-05-06 12:08 | 36.79284 | 27.09248 | 409 ft | 38 kts | 148° |
| 2026-05-06 12:08 | 36.78985 | 27.09482 | 397 ft | 56 kts | 148° |
| 2026-05-06 12:08 | 36.78680 | 27.09720 | 393 ft | 45 kts | 148° |
| 2026-05-06 12:09 | 36.78551 | 27.09839 | 387 ft | 9 kts | 216° |
| 2026-05-06 12:09 | 36.78598 | 27.09785 | 390 ft | 15 kts | 328° |
| 2026-05-06 12:09 | 36.78651 | 27.09743 | 392 ft | 0 kts | 328° |
| 2026-05-06 12:10 | 36.78808 | 27.09619 | 391 ft | 61 kts | 328° |
| 2026-05-06 12:10 | 36.79345 | 27.09199 | 413 ft | 118 kts | 328° |
| 2026-05-06 12:10 | 36.80164 | 27.08563 | 432 ft | 160 kts | 328° |
| 2026-05-06 12:10 | 36.81126 | 27.07838 | 1006 ft | 161 kts | 329° |
| 2026-05-06 12:11 | 36.81990 | 27.06914 | 1506 ft | 175 kts | 297° |
| 2026-05-06 12:11 | 36.82295 | 27.05287 | 1625 ft | 217 kts | 277° |
| 2026-05-06 12:11 | 36.82518 | 27.03242 | 1845 ft | 253 kts | 281° |
| 2026-05-06 12:11 | 36.83094 | 27.01235 | 2947 ft | 241 kts | 301° |
| 2026-05-06 12:12 | 36.83943 | 26.99364 | 3646 ft | 255 kts | 304° |
| 2026-05-06 12:12 | 36.84909 | 26.97472 | 4484 ft | 259 kts | 306° |
| 2026-05-06 12:12 | 36.85903 | 26.95592 | 5423 ft | 260 kts | 307° |
| 2026-05-06 12:12 | 36.86901 | 26.93709 | 6414 ft | 259 kts | 307° |
| 2026-05-06 12:13 | 36.87558 | 26.92462 | 7017 ft | 260 kts | 307° |
| 2026-05-06 12:13 | 36.88553 | 26.90558 | 7840 ft | 263 kts | 306° |
| 2026-05-06 12:13 | 36.89555 | 26.88619 | 8643 ft | 268 kts | 306° |
| 2026-05-06 12:13 | 36.90570 | 26.86640 | 9435 ft | 273 kts | 305° |
| 2026-05-06 12:14 | 36.91601 | 26.84622 | 10176 ft | 278 kts | 305° |
| 2026-05-06 12:14 | 36.92739 | 26.82590 | 10569 ft | 295 kts | 315° |
| 2026-05-06 12:14 | 36.94478 | 26.81118 | 10849 ft | 312 kts | 341° |
| 2026-05-06 12:14 | 36.96639 | 26.80749 | 11451 ft | 319 kts | 1° |
| 2026-05-06 12:15 | 36.98871 | 26.80883 | 12198 ft | 323 kts | 2° |
| 2026-05-06 12:15 | 37.01122 | 26.80865 | 12931 ft | 325 kts | 350° |
| 2026-05-06 12:15 | 37.03264 | 26.79964 | 13659 ft | 327 kts | 333° |
| 2026-05-06 12:15 | 37.05271 | 26.78669 | 14351 ft | 330 kts | 332° |
| 2026-05-06 12:16 | 37.07314 | 26.77335 | 15005 ft | 332 kts | 332° |
| 2026-05-06 12:16 | 37.09371 | 26.75983 | 15661 ft | 335 kts | 332° |
| 2026-05-06 12:16 | 37.11445 | 26.74617 | 16339 ft | 338 kts | 332° |
| 2026-05-06 12:16 | 37.13533 | 26.73241 | 16967 ft | 341 kts | 332° |
| 2026-05-06 12:17 | 37.15640 | 26.71856 | 17602 ft | 344 kts | 332° |
| 2026-05-06 12:17 | 37.17769 | 26.70459 | 18242 ft | 347 kts | 332° |
| 2026-05-06 12:17 | 37.19916 | 26.69048 | 18796 ft | 350 kts | 331° |
| 2026-05-06 12:17 | 37.22078 | 26.67625 | 19345 ft | 352 kts | 331° |
| 2026-05-06 12:18 | 37.24216 | 26.66217 | 19889 ft | 355 kts | 331° |
| 2026-05-06 12:18 | 37.26409 | 26.64777 | 20441 ft | 357 kts | 331° |
| 2026-05-06 12:18 | 37.28597 | 26.63342 | 20982 ft | 360 kts | 331° |